createdAt,value
2023-05-20T00:00:03.910Z,12.67
2023-05-20T00:02:30.789Z,12.68
2023-05-20T00:04:58.578Z,12.67
2023-05-20T00:07:25.141Z,12.65
2023-05-20T00:09:51.760Z,12.65
2023-05-20T00:12:18.269Z,12.64
2023-05-20T00:14:44.700Z,12.63
2023-05-20T00:17:11.193Z,12.53
2023-05-20T00:19:38.043Z,12.53
2023-05-20T00:22:04.767Z,12.44
2023-05-20T00:24:31.392Z,12.44
2023-05-20T00:26:59.902Z,12.47
2023-05-20T00:29:26.320Z,12.40
2023-05-20T00:31:54.228Z,12.26
2023-05-20T00:34:20.710Z,12.18
2023-05-20T00:36:47.161Z,12.17
2023-05-20T00:39:13.636Z,12.23
2023-05-20T00:41:40.346Z,12.19
2023-05-20T00:44:07.229Z,12.16
2023-05-20T00:46:34.142Z,12.19
2023-05-20T00:49:00.722Z,12.19
2023-05-20T00:51:27.180Z,12.20
2023-05-20T00:53:53.638Z,12.12
2023-05-20T00:56:20.427Z,12.17
2023-05-20T00:58:47.261Z,12.18
2023-05-20T01:01:13.853Z,12.14
2023-05-20T01:03:40.401Z,12.14
2023-05-20T01:06:06.868Z,12.14
2023-05-20T01:08:33.486Z,12.09
2023-05-20T01:10:59.960Z,12.03
2023-05-20T01:13:26.381Z,12.02
2023-05-20T01:15:52.812Z,12.04
2023-05-20T01:18:19.246Z,12.06
2023-05-20T01:20:45.637Z,12.07
2023-05-20T01:23:12.401Z,12.06
2023-05-20T01:25:40.709Z,12.05
2023-05-20T01:28:07.099Z,12.04
2023-05-20T01:30:33.527Z,12.01
2023-05-20T01:33:00.168Z,11.97
2023-05-20T01:35:26.704Z,11.99
2023-05-20T01:37:55.666Z,12.00
2023-05-20T01:40:22.324Z,12.01
2023-05-20T01:42:48.703Z,11.97
2023-05-20T01:45:15.618Z,11.95
2023-05-20T01:47:42.073Z,11.93
2023-05-20T01:50:08.812Z,11.93
2023-05-20T01:52:35.248Z,11.94
2023-05-20T01:55:02.048Z,11.91
2023-05-20T01:57:30.762Z,11.89
2023-05-20T01:59:57.211Z,11.89
2023-05-20T02:02:23.720Z,11.87
2023-05-20T02:04:50.296Z,11.85
2023-05-20T02:07:16.726Z,11.76
2023-05-20T02:09:43.147Z,11.76
2023-05-20T02:12:09.815Z,11.76
2023-05-20T02:14:36.170Z,11.77
2023-05-20T02:17:02.804Z,11.76
2023-05-20T02:19:29.285Z,11.72
2023-05-20T02:21:55.759Z,11.72
2023-05-20T02:24:22.601Z,11.72
2023-05-20T02:26:49.071Z,11.72
2023-05-20T02:29:15.489Z,11.68
2023-05-20T02:31:41.857Z,11.67
2023-05-20T02:34:08.454Z,11.64
2023-05-20T02:36:34.949Z,11.60
2023-05-20T02:39:01.360Z,11.61
2023-05-20T02:41:27.723Z,11.51
2023-05-20T02:43:54.144Z,11.48
2023-05-20T02:46:20.540Z,11.49
2023-05-20T02:48:47.358Z,11.50
2023-05-20T02:51:14.223Z,11.49
2023-05-20T02:53:40.761Z,11.51
2023-05-20T02:56:07.215Z,11.49
2023-05-20T02:58:33.626Z,11.50
2023-05-20T03:01:00.040Z,11.50
2023-05-20T03:03:26.600Z,11.49
2023-05-20T03:05:55.739Z,11.46
2023-05-20T03:08:22.180Z,11.45
2023-05-20T03:10:48.580Z,11.43
2023-05-20T03:13:15.041Z,11.43
2023-05-20T03:15:41.560Z,11.40
2023-05-20T03:18:08.139Z,11.39
2023-05-20T03:20:34.542Z,11.37
2023-05-20T03:23:00.906Z,11.37
2023-05-20T03:25:27.646Z,11.36
2023-05-20T03:27:54.006Z,11.36
2023-05-20T03:30:20.433Z,11.36
2023-05-20T03:32:46.955Z,11.20
2023-05-20T03:35:14.179Z,11.15
2023-05-20T03:37:40.559Z,11.21
2023-05-20T03:40:07.067Z,11.21
2023-05-20T03:42:33.500Z,11.23
2023-05-20T03:44:59.951Z,11.24
2023-05-20T03:47:26.420Z,11.25
2023-05-20T03:49:53.312Z,11.29
2023-05-20T03:52:19.735Z,11.29
2023-05-20T03:54:46.205Z,11.31
2023-05-20T03:57:12.632Z,11.32
2023-05-20T03:59:39.072Z,11.32
2023-05-20T04:02:05.639Z,11.31
2023-05-20T04:04:32.122Z,11.36
2023-05-20T04:06:58.526Z,11.33
2023-05-20T04:09:24.985Z,11.30
2023-05-20T04:11:51.369Z,11.21
2023-05-20T04:14:17.837Z,11.21
2023-05-20T04:16:44.287Z,11.34
2023-05-20T04:19:10.857Z,11.20
2023-05-20T04:21:37.497Z,11.15
2023-05-20T04:24:03.957Z,11.17
2023-05-20T04:26:30.476Z,11.22
2023-05-20T04:28:56.890Z,11.29
2023-05-20T04:31:23.361Z,11.29
2023-05-20T04:33:51.237Z,11.32
2023-05-20T04:36:17.622Z,11.30
2023-05-20T04:38:44.060Z,11.29
2023-05-20T04:41:10.590Z,11.26
2023-05-20T04:43:37.079Z,11.32
2023-05-20T04:46:03.633Z,11.39
2023-05-20T04:48:30.541Z,11.40
2023-05-20T04:50:56.984Z,11.43
2023-05-20T04:53:23.974Z,11.46
2023-05-20T04:55:50.368Z,11.49
2023-05-20T04:58:16.819Z,11.50
2023-05-20T05:00:43.264Z,11.51
2023-05-20T05:03:09.691Z,11.53
2023-05-20T05:05:36.133Z,11.48
2023-05-20T05:08:02.547Z,11.48
2023-05-20T05:10:28.932Z,11.42
2023-05-20T05:12:55.333Z,11.57
2023-05-20T05:15:21.960Z,11.73
2023-05-20T05:17:48.429Z,11.81
2023-05-20T05:20:14.909Z,11.88
2023-05-20T05:22:41.362Z,11.94
2023-05-20T05:25:09.290Z,11.93
2023-05-20T05:27:35.682Z,11.98
2023-05-20T05:30:02.056Z,12.01
2023-05-20T05:32:28.626Z,12.00
2023-05-20T05:34:55.169Z,12.02
2023-05-20T05:37:21.644Z,12.00
2023-05-20T05:39:48.108Z,12.05
2023-05-20T05:42:14.532Z,12.07
2023-05-20T05:44:40.960Z,12.08
2023-05-20T05:47:07.568Z,12.18
2023-05-20T05:49:34.234Z,12.28
2023-05-20T05:52:00.656Z,12.26
2023-05-20T05:54:27.203Z,12.37
2023-05-20T05:56:56.090Z,12.40
2023-05-20T05:59:22.497Z,12.30
2023-05-20T06:01:49.406Z,12.37
2023-05-20T06:04:16.140Z,12.43
2023-05-20T06:06:42.919Z,12.48
2023-05-20T06:09:09.276Z,12.56
2023-05-20T06:11:35.748Z,12.63
2023-05-20T06:14:02.171Z,12.72
2023-05-20T06:16:28.878Z,12.72
2023-05-20T06:18:55.399Z,12.78
2023-05-20T06:21:24.086Z,12.79
2023-05-20T06:23:50.838Z,12.76
2023-05-20T06:26:17.256Z,12.75
2023-05-20T06:28:43.718Z,12.84
2023-05-20T06:31:10.238Z,12.95
2023-05-20T06:33:36.753Z,13.05
2023-05-20T06:36:03.192Z,12.98
2023-05-20T06:38:29.809Z,12.97
2023-05-20T06:40:57.147Z,13.09
2023-05-20T06:43:23.635Z,13.15
2023-05-20T06:45:50.007Z,13.15
2023-05-20T06:48:16.470Z,13.18
2023-05-20T06:50:45.130Z,13.31
2023-05-20T06:53:11.631Z,13.44
2023-05-20T06:55:38.044Z,13.50
2023-05-20T06:58:04.436Z,13.53
2023-05-20T07:00:30.816Z,13.56
2023-05-20T07:02:57.301Z,13.63
2023-05-20T07:05:23.716Z,13.70
2023-05-20T07:07:50.235Z,13.72
2023-05-20T07:10:16.631Z,13.71
2023-05-20T07:12:43.152Z,13.78
2023-05-20T07:15:09.742Z,13.85
2023-05-20T07:17:36.194Z,13.81
2023-05-20T07:20:02.709Z,13.92
2023-05-20T07:22:29.244Z,13.88
2023-05-20T07:24:55.649Z,13.79
2023-05-20T07:27:22.005Z,13.97
2023-05-20T07:29:48.469Z,14.11
2023-05-20T07:32:14.895Z,14.10
2023-05-20T07:34:41.269Z,14.23
2023-05-20T07:37:07.756Z,14.26
2023-05-20T07:39:34.240Z,14.42
2023-05-20T07:42:00.625Z,14.52
2023-05-20T07:44:27.186Z,14.66
2023-05-20T07:46:53.758Z,14.63
2023-05-20T07:49:20.170Z,14.73
2023-05-20T07:51:46.615Z,14.76
2023-05-20T07:54:13.343Z,14.81
2023-05-20T07:56:39.738Z,14.83
2023-05-20T07:59:06.242Z,15.02
2023-05-20T08:01:32.661Z,15.11
2023-05-20T08:03:59.179Z,15.24
2023-05-20T08:06:27.911Z,15.31
2023-05-20T08:08:56.250Z,15.11
2023-05-20T08:11:22.701Z,15.13
2023-05-20T08:13:49.172Z,15.30
2023-05-20T08:16:15.580Z,15.27
2023-05-20T08:18:42.127Z,15.40
2023-05-20T08:21:08.581Z,15.42
2023-05-20T08:23:37.337Z,15.39
2023-05-20T08:26:07.156Z,15.49
2023-05-20T08:28:34.981Z,15.50
2023-05-20T08:31:01.474Z,15.49
2023-05-20T08:33:28.115Z,15.55
2023-05-20T08:35:54.875Z,15.55
2023-05-20T08:38:21.578Z,15.55
2023-05-20T08:40:48.381Z,15.63
2023-05-20T08:43:14.769Z,15.79
2023-05-20T08:45:42.631Z,15.82
2023-05-20T08:48:09.394Z,15.81
2023-05-20T08:50:36.127Z,15.88
2023-05-20T08:53:02.563Z,15.95
2023-05-20T08:55:28.954Z,16.07
2023-05-20T08:57:55.387Z,16.10
2023-05-20T09:00:21.986Z,16.16
2023-05-20T09:02:48.593Z,16.27
2023-05-20T09:05:15.584Z,16.20
2023-05-20T09:07:42.129Z,16.19
2023-05-20T09:10:08.532Z,16.24
2023-05-20T09:12:34.987Z,16.28
2023-05-20T09:15:01.468Z,16.33
2023-05-20T09:17:27.896Z,16.35
2023-05-20T09:19:54.390Z,16.44
2023-05-20T09:22:20.870Z,16.53
2023-05-20T09:24:47.902Z,16.51
2023-05-20T09:27:15.323Z,16.60
2023-05-20T09:29:41.747Z,16.56
2023-05-20T09:32:08.257Z,16.59
2023-05-20T09:34:37.135Z,16.64
2023-05-20T09:37:03.730Z,16.70
2023-05-20T09:39:31.049Z,16.77
2023-05-20T09:41:57.403Z,16.95
2023-05-20T09:44:23.824Z,16.99
2023-05-20T09:46:50.270Z,16.79
2023-05-20T09:49:16.662Z,16.76
2023-05-20T09:51:43.071Z,16.87
2023-05-20T09:54:09.499Z,16.91
2023-05-20T09:56:36.710Z,16.91
2023-05-20T09:59:03.096Z,17.03
2023-05-20T10:01:29.565Z,17.03
2023-05-20T10:03:56.085Z,16.84
2023-05-20T10:06:22.628Z,16.48
2023-05-20T10:08:50.128Z,16.61
2023-05-20T10:11:16.623Z,16.74
2023-05-20T10:13:43.280Z,16.89
2023-05-20T10:16:09.789Z,16.90
2023-05-20T10:18:36.569Z,16.88
2023-05-20T10:21:02.981Z,16.96
2023-05-20T10:23:29.433Z,17.05
2023-05-20T10:25:56.062Z,17.11
2023-05-20T10:28:22.497Z,17.21
2023-05-20T10:30:48.966Z,17.35
2023-05-20T10:33:15.463Z,17.28
2023-05-20T10:35:41.904Z,17.33
2023-05-20T10:38:08.340Z,17.35
2023-05-20T10:40:35.117Z,17.35
2023-05-20T10:43:01.777Z,17.45
2023-05-20T10:45:28.341Z,17.51
2023-05-20T10:47:54.864Z,17.70
2023-05-20T10:50:21.321Z,17.73
2023-05-20T10:52:47.732Z,17.73
2023-05-20T10:55:14.128Z,17.79
2023-05-20T10:57:40.522Z,17.81
2023-05-20T11:00:06.899Z,17.90
2023-05-20T11:02:33.328Z,18.00
2023-05-20T11:04:59.804Z,18.04
2023-05-20T11:07:26.196Z,18.15
2023-05-20T11:09:52.619Z,18.30
2023-05-20T11:12:19.099Z,18.23
2023-05-20T11:14:45.515Z,18.34
2023-05-20T11:17:11.990Z,18.42
2023-05-20T11:19:38.370Z,18.47
2023-05-20T11:22:04.767Z,18.54
2023-05-20T11:24:31.235Z,18.60
2023-05-20T11:26:57.682Z,18.60
2023-05-20T11:29:24.244Z,18.65
2023-05-20T11:31:50.707Z,18.46
2023-05-20T11:34:17.091Z,18.45
2023-05-20T11:36:43.847Z,18.47
2023-05-20T11:39:10.285Z,18.49
2023-05-20T11:41:38.767Z,18.51
2023-05-20T11:44:05.109Z,18.60
2023-05-20T11:46:31.579Z,18.76
2023-05-20T11:48:58.050Z,18.90
2023-05-20T11:51:24.440Z,19.01
2023-05-20T11:53:50.855Z,19.04
2023-05-20T11:56:17.324Z,19.11
2023-05-20T11:58:43.781Z,19.07
2023-05-20T12:01:21.450Z,19.07
2023-05-20T12:03:50.248Z,19.13
2023-05-20T12:06:16.944Z,19.26
2023-05-20T12:08:43.444Z,19.25
2023-05-20T12:11:09.891Z,19.35
2023-05-20T12:13:36.546Z,19.43
2023-05-20T12:16:03.175Z,19.48
2023-05-20T12:18:30.238Z,19.51
2023-05-20T12:20:56.641Z,19.53
2023-05-20T12:23:23.188Z,19.48
2023-05-20T12:25:50.497Z,19.61
2023-05-20T12:28:16.949Z,19.66
2023-05-20T12:30:43.398Z,19.56
2023-05-20T12:33:09.903Z,19.48
2023-05-20T12:35:36.478Z,19.49
2023-05-20T12:38:02.948Z,19.56
2023-05-20T12:40:29.894Z,19.47
2023-05-20T12:42:57.191Z,19.57
2023-05-20T12:45:23.790Z,19.58
2023-05-20T12:47:50.740Z,19.67
2023-05-20T12:50:17.310Z,19.74
2023-05-20T12:52:43.880Z,19.94
2023-05-20T12:55:13.189Z,19.99
2023-05-20T12:57:39.721Z,20.10
2023-05-20T13:00:08.768Z,20.09
2023-05-20T13:02:36.756Z,20.11
2023-05-20T13:05:05.280Z,20.17
2023-05-20T13:07:31.737Z,20.30
2023-05-20T13:09:58.402Z,20.39
2023-05-20T13:12:24.873Z,20.49
2023-05-20T13:14:51.305Z,20.58
2023-05-20T13:17:17.781Z,20.67
2023-05-20T13:19:44.267Z,20.69
2023-05-20T13:22:10.711Z,20.76
2023-05-20T13:24:37.197Z,20.72
2023-05-20T13:27:03.659Z,20.79
2023-05-20T13:29:30.077Z,20.92
2023-05-20T13:31:56.514Z,21.05
2023-05-20T13:34:23.220Z,21.05
2023-05-20T13:36:49.612Z,21.09
2023-05-20T13:39:16.070Z,21.09
2023-05-20T13:41:42.599Z,20.97
2023-05-20T13:44:09.067Z,20.99
2023-05-20T13:46:38.020Z,21.06
2023-05-20T13:49:04.493Z,21.02
2023-05-20T13:51:31.956Z,21.09
2023-05-20T13:53:59.245Z,21.14
2023-05-20T13:56:25.713Z,21.18
2023-05-20T13:58:52.119Z,21.20
2023-05-20T14:01:18.858Z,21.17
2023-05-20T14:03:45.528Z,21.08
2023-05-20T14:06:12.361Z,21.14
2023-05-20T14:08:41.140Z,21.22
2023-05-20T14:11:07.607Z,21.19
2023-05-20T14:13:34.238Z,21.22
2023-05-20T14:16:01.082Z,21.31
2023-05-20T14:18:29.561Z,21.33
2023-05-20T14:20:56.192Z,21.39
2023-05-20T14:23:22.768Z,21.36
2023-05-20T14:25:49.276Z,21.39
2023-05-20T14:28:16.070Z,21.38
2023-05-20T14:30:42.747Z,21.33
2023-05-20T14:33:09.343Z,21.35
2023-05-20T14:35:36.764Z,21.31
2023-05-20T14:38:03.207Z,21.34
2023-05-20T14:40:29.760Z,21.42
2023-05-20T14:42:56.280Z,21.48
2023-05-20T14:45:22.754Z,21.50
2023-05-20T14:47:49.187Z,21.49
2023-05-20T14:50:15.612Z,21.47
2023-05-20T14:52:42.463Z,21.49
2023-05-20T14:55:08.822Z,21.54
2023-05-20T14:57:35.304Z,21.65
2023-05-20T15:00:01.730Z,21.81
2023-05-20T15:02:28.251Z,21.89
2023-05-20T15:04:54.726Z,22.03
2023-05-20T15:07:21.275Z,22.07
2023-05-20T15:09:47.710Z,22.16
2023-05-20T15:12:14.147Z,22.19
2023-05-20T15:14:40.547Z,22.25
2023-05-20T15:17:06.981Z,22.28
2023-05-20T15:19:33.625Z,22.25
2023-05-20T15:22:00.223Z,22.26
2023-05-20T15:24:26.589Z,22.26
2023-05-20T15:26:54.403Z,22.24
2023-05-20T15:29:20.833Z,22.28
2023-05-20T15:31:47.305Z,22.22
2023-05-20T15:34:13.791Z,22.18
2023-05-20T15:36:40.294Z,22.26
2023-05-20T15:39:06.967Z,22.29
2023-05-20T15:41:33.374Z,22.22
2023-05-20T15:44:00.047Z,22.26
2023-05-20T15:46:26.506Z,22.38
2023-05-20T15:48:53.066Z,22.43
2023-05-20T15:51:19.451Z,22.43
2023-05-20T15:53:45.948Z,22.42
2023-05-20T15:56:12.486Z,22.46
2023-05-20T15:58:38.986Z,22.50
2023-05-20T16:01:05.444Z,22.47
2023-05-20T16:03:31.971Z,22.44
2023-05-20T16:05:58.665Z,22.39
2023-05-20T16:08:25.722Z,22.37
2023-05-20T16:10:52.148Z,22.20
2023-05-20T16:13:18.723Z,22.09
2023-05-20T16:15:45.315Z,22.06
2023-05-20T16:18:11.841Z,22.05
2023-05-20T16:20:38.331Z,22.17
2023-05-20T16:23:04.809Z,22.17
2023-05-20T16:25:31.292Z,22.10
2023-05-20T16:27:57.707Z,22.08
2023-05-20T16:30:24.159Z,22.18
2023-05-20T16:32:50.618Z,22.09
2023-05-20T16:35:17.102Z,22.04
2023-05-20T16:37:43.574Z,22.04
2023-05-20T16:40:10.050Z,22.12
2023-05-20T16:42:36.598Z,22.16
2023-05-20T16:45:03.086Z,22.16
2023-05-20T16:47:29.723Z,22.21
2023-05-20T16:49:56.112Z,22.11
2023-05-20T16:52:22.736Z,22.12
2023-05-20T16:54:49.159Z,22.00
2023-05-20T16:57:15.583Z,21.97
2023-05-20T16:59:42.459Z,21.97
2023-05-20T17:02:09.013Z,21.96
2023-05-20T17:04:35.638Z,21.93
2023-05-20T17:07:02.234Z,21.88
2023-05-20T17:09:28.668Z,21.77
2023-05-20T17:11:55.139Z,21.74
2023-05-20T17:14:22.037Z,21.77
2023-05-20T17:16:48.667Z,21.74
2023-05-20T17:19:16.531Z,21.80
2023-05-20T17:21:43.055Z,21.69
2023-05-20T17:24:09.812Z,21.60
2023-05-20T17:26:36.685Z,21.58
2023-05-20T17:29:03.620Z,21.53
2023-05-20T17:31:30.527Z,21.40
2023-05-20T17:33:57.679Z,21.38
2023-05-20T17:36:24.856Z,21.42
2023-05-20T17:38:51.895Z,21.33
2023-05-20T17:41:18.910Z,21.27
2023-05-20T17:43:45.903Z,21.23
2023-05-20T17:46:13.049Z,21.21
2023-05-20T17:48:40.405Z,21.12
2023-05-20T17:51:07.675Z,21.07
2023-05-20T17:53:34.784Z,21.03
2023-05-20T17:56:03.000Z,21.00
2023-05-20T17:58:30.185Z,20.99
2023-05-20T18:00:57.694Z,21.08
2023-05-20T18:03:24.893Z,21.13
2023-05-20T18:05:54.431Z,21.14
2023-05-20T18:08:22.867Z,21.12
2023-05-20T18:10:50.529Z,21.11
2023-05-20T18:13:17.718Z,21.05
2023-05-20T18:15:44.960Z,20.98
2023-05-20T18:18:12.147Z,20.91
2023-05-20T18:20:39.390Z,20.84
2023-05-20T18:23:07.652Z,20.78
2023-05-20T18:25:34.826Z,20.75
2023-05-20T18:28:02.176Z,20.73
2023-05-20T18:30:30.332Z,20.67
2023-05-20T18:32:57.351Z,20.64
2023-05-20T18:35:25.361Z,20.44
2023-05-20T18:37:52.782Z,20.38
2023-05-20T18:40:19.959Z,20.18
2023-05-20T18:42:47.227Z,20.03
2023-05-20T18:45:14.325Z,19.53
2023-05-20T18:47:41.849Z,19.14
2023-05-20T18:50:09.002Z,19.35
2023-05-20T18:52:38.138Z,18.93
2023-05-20T18:55:05.311Z,19.03
2023-05-20T18:57:32.550Z,19.26
2023-05-20T19:00:04.356Z,19.48
2023-05-20T19:02:31.761Z,19.63
2023-05-20T19:04:59.162Z,19.69
2023-05-20T19:07:28.542Z,19.66
2023-05-20T19:09:55.806Z,19.61
2023-05-20T19:12:24.057Z,19.69
2023-05-20T19:14:51.279Z,19.73
2023-05-20T19:17:20.284Z,19.71
2023-05-20T19:19:48.330Z,19.65
2023-05-20T19:22:16.189Z,19.71
2023-05-20T19:24:43.430Z,19.70
2023-05-20T19:27:10.842Z,19.74
2023-05-20T19:29:39.237Z,19.72
2023-05-20T19:32:06.625Z,19.62
2023-05-20T19:34:34.984Z,19.65
2023-05-20T19:37:02.212Z,19.66
2023-05-20T19:39:29.624Z,19.54
2023-05-20T19:41:57.010Z,19.55
2023-05-20T19:44:24.214Z,19.48
2023-05-20T19:46:51.467Z,19.43
2023-05-20T19:49:19.839Z,19.37
2023-05-20T19:51:47.012Z,19.35
2023-05-20T19:54:14.155Z,19.18
2023-05-20T19:56:42.198Z,19.23
2023-05-20T19:59:09.684Z,19.21
2023-05-20T20:01:38.008Z,19.17
2023-05-20T20:04:08.351Z,19.18
2023-05-20T20:06:36.707Z,19.25
2023-05-20T20:09:03.954Z,19.29
2023-05-20T20:11:31.338Z,19.28
2023-05-20T20:14:00.672Z,19.18
2023-05-20T20:16:27.958Z,19.18
2023-05-20T20:18:56.278Z,19.24
2023-05-20T20:21:26.040Z,19.30
2023-05-20T20:23:53.297Z,19.34
2023-05-20T20:26:20.550Z,19.36
2023-05-20T20:28:47.744Z,19.34
2023-05-20T20:31:15.484Z,19.35
2023-05-20T20:33:42.651Z,19.39
2023-05-20T20:36:09.785Z,19.37
2023-05-20T20:38:37.467Z,19.35
2023-05-20T20:41:07.936Z,19.14
2023-05-20T20:43:35.053Z,19.14
2023-05-20T20:46:02.785Z,19.15
2023-05-20T20:48:31.378Z,19.13
2023-05-20T20:50:59.040Z,19.14
2023-05-20T20:53:26.231Z,19.12
2023-05-20T20:55:53.172Z,19.10
2023-05-20T20:58:20.017Z,19.08
2023-05-20T21:00:46.530Z,19.04
2023-05-20T21:03:13.106Z,19.04
2023-05-20T21:05:39.702Z,18.99
2023-05-20T21:08:06.154Z,18.93
2023-05-20T21:10:32.564Z,18.93
2023-05-20T21:12:59.090Z,18.90
2023-05-20T21:15:25.616Z,18.89
2023-05-20T21:17:52.333Z,18.83
2023-05-20T21:20:21.026Z,18.80
2023-05-20T21:22:48.972Z,18.79
2023-05-20T21:25:15.471Z,18.74
2023-05-20T21:27:41.887Z,18.66
2023-05-20T21:30:09.763Z,18.66
2023-05-20T21:32:36.442Z,18.50
2023-05-20T21:35:03.683Z,18.54
2023-05-20T21:37:30.093Z,18.58
2023-05-20T21:39:56.556Z,18.54
2023-05-20T21:42:22.955Z,18.45
2023-05-20T21:44:49.379Z,18.43
2023-05-20T21:47:18.094Z,18.23
2023-05-20T21:49:44.751Z,18.11
2023-05-20T21:52:11.447Z,18.18
2023-05-20T21:54:38.018Z,18.24
2023-05-20T21:57:04.512Z,18.14
2023-05-20T21:59:30.976Z,17.95
2023-05-20T22:01:57.591Z,17.94
2023-05-20T22:04:24.048Z,17.10
2023-05-20T22:06:50.489Z,17.34
2023-05-20T22:09:17.273Z,17.60
2023-05-20T22:11:43.681Z,17.76
2023-05-20T22:14:10.717Z,17.86
2023-05-20T22:16:37.262Z,17.89
2023-05-20T22:19:04.012Z,17.87
2023-05-20T22:23:58.503Z,17.64
2023-05-20T22:26:24.976Z,17.76
2023-05-20T22:28:51.603Z,17.77
2023-05-20T22:31:18.131Z,17.61
2023-05-20T22:33:44.574Z,17.64
2023-05-20T22:36:11.059Z,17.73
2023-05-20T22:38:37.500Z,17.72
2023-05-20T22:41:03.991Z,17.74
2023-05-20T22:43:31.402Z,17.75
2023-05-20T22:45:58.048Z,17.62
2023-05-20T22:48:24.441Z,17.63
2023-05-20T22:50:51.164Z,17.35
2023-05-20T22:53:17.856Z,16.67
2023-05-20T22:55:44.587Z,16.79
2023-05-20T22:58:10.978Z,16.96
2023-05-20T23:00:37.363Z,17.01
2023-05-20T23:03:03.816Z,17.07
2023-05-20T23:05:30.393Z,17.07
2023-05-20T23:07:56.856Z,17.10
2023-05-20T23:10:23.328Z,17.20
2023-05-20T23:12:52.705Z,17.29
2023-05-20T23:15:19.285Z,17.33
2023-05-20T23:17:45.691Z,17.27
2023-05-20T23:20:12.157Z,17.17
2023-05-20T23:22:39.685Z,16.84
2023-05-20T23:25:06.110Z,16.69
2023-05-20T23:27:32.692Z,16.58
2023-05-20T23:29:59.156Z,16.48
2023-05-20T23:32:25.626Z,16.51
2023-05-20T23:34:52.143Z,16.69
2023-05-20T23:37:21.466Z,16.82
2023-05-20T23:39:47.909Z,16.86
2023-05-20T23:42:14.447Z,16.76
2023-05-20T23:44:43.146Z,16.29
2023-05-20T23:47:09.521Z,15.93
2023-05-20T23:49:35.981Z,15.92
2023-05-20T23:52:02.504Z,16.26
2023-05-20T23:54:28.971Z,16.44
2023-05-20T23:56:55.407Z,16.58
2023-05-20T23:59:21.832Z,16.30
